createdAt,value
2019-03-27T00:01:12.733Z,1.80
2019-03-27T00:03:43.055Z,1.50
2019-03-27T00:06:12.594Z,1.77
2019-03-27T00:08:42.735Z,1.60
2019-03-27T00:11:16.033Z,2.00
2019-03-27T00:13:44.257Z,1.70
2019-03-27T00:16:14.366Z,1.70
2019-03-27T00:18:44.685Z,1.67
2019-03-27T00:21:14.852Z,1.50
2019-03-27T00:23:44.584Z,1.80
2019-03-27T00:26:14.058Z,1.70
2019-03-27T00:28:43.466Z,1.57
2019-03-27T00:31:13.593Z,2.03
2019-03-27T00:33:43.794Z,1.77
2019-03-27T00:36:13.300Z,1.30
2019-03-27T00:38:43.388Z,1.70
2019-03-27T00:41:12.862Z,1.60
2019-03-27T00:43:42.976Z,1.87
2019-03-27T00:46:13.125Z,1.57
2019-03-27T00:48:43.374Z,1.60
2019-03-27T00:51:13.083Z,1.70
2019-03-27T00:53:42.508Z,2.00
2019-03-27T00:56:11.916Z,1.90
2019-03-27T00:58:41.985Z,2.40
2019-03-27T01:01:12.570Z,2.33
2019-03-27T01:03:42.830Z,1.90
2019-03-27T01:06:12.654Z,1.97
2019-03-27T01:08:42.135Z,2.30
2019-03-27T01:11:12.645Z,2.00
2019-03-27T01:13:42.112Z,2.30
2019-03-27T01:16:11.555Z,2.10
2019-03-27T01:18:40.954Z,2.00
2019-03-27T01:21:11.318Z,2.33
2019-03-27T01:23:41.555Z,2.50
2019-03-27T01:26:12.131Z,3.23
2019-03-27T01:28:41.562Z,3.00
2019-03-27T01:31:11.663Z,3.10
2019-03-27T01:33:42.093Z,3.80
2019-03-27T01:36:12.329Z,3.60
2019-03-27T01:38:43.586Z,3.73
2019-03-27T01:41:13.810Z,4.87
2019-03-27T01:43:44.094Z,3.90
2019-03-27T01:46:13.599Z,3.97
2019-03-27T01:48:43.766Z,4.23
2019-03-27T01:51:14.073Z,4.43
2019-03-27T01:53:44.258Z,4.63
2019-03-27T01:56:13.751Z,5.00
2019-03-27T01:58:44.013Z,5.53
2019-03-27T02:01:14.315Z,5.37
2019-03-27T02:03:43.797Z,5.93
2019-03-27T02:06:13.969Z,5.90
2019-03-27T02:08:44.258Z,5.83
2019-03-27T02:11:14.507Z,6.47
2019-03-27T02:13:44.098Z,5.67
2019-03-27T02:16:14.837Z,5.93
2019-03-27T02:18:45.026Z,6.40
2019-03-27T02:21:15.188Z,6.20
2019-03-27T02:23:44.658Z,6.30
2019-03-27T02:26:14.082Z,5.73
2019-03-27T02:28:43.482Z,6.17
2019-03-27T02:31:13.033Z,6.73
2019-03-27T02:33:42.441Z,5.90
2019-03-27T02:36:11.948Z,6.47
2019-03-27T02:38:42.091Z,6.47
2019-03-27T02:41:11.579Z,6.30
2019-03-27T02:43:41.758Z,6.20
2019-03-27T02:46:23.594Z,6.43
2019-03-27T02:48:43.206Z,6.63
2019-03-27T02:51:13.606Z,6.10
2019-03-27T02:53:43.764Z,6.93
2019-03-27T02:56:14.063Z,6.17
2019-03-27T02:58:43.655Z,6.40
2019-03-27T03:01:13.096Z,7.00
2019-03-27T03:03:42.499Z,6.90
2019-03-27T03:06:11.879Z,7.23
2019-03-27T03:08:42.037Z,7.43
2019-03-27T03:11:12.411Z,7.53
2019-03-27T03:13:41.930Z,7.73
2019-03-27T03:16:12.355Z,7.70
2019-03-27T03:18:42.822Z,7.50
2019-03-27T03:21:12.318Z,7.50
2019-03-27T03:23:42.696Z,8.53
2019-03-27T03:26:12.298Z,8.83
2019-03-27T03:28:41.688Z,8.30
2019-03-27T03:31:11.067Z,9.50
2019-03-27T03:33:40.560Z,9.07
2019-03-27T03:36:11.223Z,8.40
2019-03-27T03:38:41.574Z,8.63
2019-03-27T03:41:11.845Z,8.67
2019-03-27T03:43:42.023Z,8.63
2019-03-27T03:46:12.426Z,8.87
2019-03-27T03:48:41.902Z,9.40
2019-03-27T03:51:11.402Z,8.77
2019-03-27T03:53:41.834Z,8.83
2019-03-27T03:56:13.630Z,8.77
2019-03-27T03:58:43.703Z,9.03
2019-03-27T04:01:15.421Z,9.00
2019-03-27T04:03:47.000Z,8.77
2019-03-27T04:06:16.557Z,8.63
2019-03-27T04:08:46.658Z,7.73
2019-03-27T04:11:16.865Z,8.50
2019-03-27T04:13:47.058Z,8.67
2019-03-27T04:16:17.237Z,8.27
2019-03-27T04:18:46.723Z,8.60
2019-03-27T04:21:16.126Z,7.27
2019-03-27T04:23:46.201Z,8.00
2019-03-27T04:26:16.561Z,7.10
2019-03-27T04:28:46.054Z,7.33
2019-03-27T04:31:15.517Z,7.43
2019-03-27T04:33:45.670Z,7.23
2019-03-27T04:36:15.205Z,7.10
2019-03-27T04:38:45.335Z,7.27
2019-03-27T04:41:15.476Z,6.80
2019-03-27T04:43:45.778Z,6.57
2019-03-27T04:46:15.957Z,6.43
2019-03-27T04:48:46.224Z,6.03
2019-03-27T04:51:16.422Z,6.10
2019-03-27T04:53:45.904Z,5.70
2019-03-27T04:56:15.987Z,6.00
2019-03-27T04:58:46.166Z,6.13
2019-03-27T05:01:15.891Z,5.80
2019-03-27T05:03:46.055Z,5.70
2019-03-27T05:06:16.206Z,5.07
2019-03-27T05:08:45.784Z,5.53
2019-03-27T05:11:15.242Z,5.00
2019-03-27T05:13:45.381Z,4.90
2019-03-27T05:16:14.910Z,5.23
2019-03-27T05:18:45.011Z,4.77
2019-03-27T05:21:15.206Z,4.43
2019-03-27T05:23:45.403Z,4.77
2019-03-27T05:26:15.006Z,5.40
2019-03-27T05:28:44.414Z,4.37
2019-03-27T05:31:13.796Z,4.33
2019-03-27T05:33:43.214Z,4.60
2019-03-27T05:36:12.818Z,4.10
2019-03-27T05:38:42.938Z,4.10
2019-03-27T05:41:13.222Z,3.97
2019-03-27T05:43:43.031Z,4.07
2019-03-27T05:46:12.685Z,3.57
2019-03-27T05:48:42.298Z,3.70
2019-03-27T05:51:12.471Z,4.40
2019-03-27T05:53:41.983Z,3.50
2019-03-27T05:56:11.443Z,3.57
2019-03-27T05:58:40.817Z,3.73
2019-03-27T06:01:11.175Z,3.97
2019-03-27T06:03:40.754Z,4.13
2019-03-27T06:06:10.165Z,4.40
2019-03-27T06:08:40.266Z,5.30
2019-03-27T06:11:10.443Z,9.90
2019-03-27T06:13:40.762Z,5.77
2019-03-27T06:16:11.018Z,5.80
2019-03-27T06:18:41.345Z,4.90
2019-03-27T06:21:11.553Z,5.43
2019-03-27T06:23:41.833Z,5.57
2019-03-27T06:26:12.228Z,5.53
2019-03-27T06:28:44.385Z,5.07
2019-03-27T06:31:14.086Z,5.93
2019-03-27T06:33:44.043Z,5.40
2019-03-27T06:36:13.718Z,5.63
2019-03-27T06:38:44.051Z,5.50
2019-03-27T06:41:14.366Z,5.77
2019-03-27T06:43:44.783Z,5.63
2019-03-27T06:46:15.053Z,5.23
2019-03-27T06:48:45.369Z,5.07
2019-03-27T06:51:15.703Z,4.80
2019-03-27T06:53:45.930Z,5.07
2019-03-27T06:56:16.119Z,4.90
2019-03-27T06:58:54.492Z,4.80
2019-03-27T07:01:18.083Z,4.70
2019-03-27T07:03:48.154Z,4.73
2019-03-27T07:06:18.409Z,4.80
2019-03-27T07:08:48.933Z,4.80
2019-03-27T07:11:18.486Z,4.40
2019-03-27T07:13:48.666Z,5.10
2019-03-27T07:16:20.305Z,4.87
2019-03-27T07:18:50.860Z,4.37
2019-03-27T07:21:21.201Z,4.27
2019-03-27T07:23:51.244Z,4.37
2019-03-27T07:26:20.781Z,4.17
2019-03-27T07:28:50.443Z,4.00
2019-03-27T07:31:21.134Z,4.30
2019-03-27T07:33:50.677Z,5.07
2019-03-27T07:36:20.956Z,4.50
2019-03-27T07:38:50.524Z,3.77
2019-03-27T07:41:20.803Z,4.13
2019-03-27T07:43:50.428Z,4.13
2019-03-27T07:46:21.857Z,4.10
2019-03-27T07:48:54.237Z,4.40
2019-03-27T07:51:23.187Z,4.57
2019-03-27T07:53:52.901Z,4.30
2019-03-27T07:56:22.491Z,5.07
2019-03-27T07:58:51.910Z,5.83
2019-03-27T08:01:21.995Z,5.10
2019-03-27T08:03:52.229Z,4.60
2019-03-27T08:06:22.503Z,5.10
2019-03-27T08:08:52.927Z,4.30
2019-03-27T08:11:23.264Z,4.40
2019-03-27T08:13:53.796Z,4.20
2019-03-27T08:16:23.390Z,13.47
2019-03-27T08:19:06.657Z,5.63
2019-03-27T08:21:25.463Z,6.60
2019-03-27T08:23:55.735Z,4.27
2019-03-27T08:26:25.913Z,4.30
2019-03-27T08:28:55.468Z,4.20
2019-03-27T08:31:24.913Z,4.40
2019-03-27T08:33:54.323Z,4.33
2019-03-27T08:36:23.735Z,4.00
2019-03-27T08:38:53.814Z,4.27
2019-03-27T08:41:23.935Z,3.87
2019-03-27T08:43:54.162Z,4.63
2019-03-27T08:46:23.738Z,3.70
2019-03-27T08:48:54.075Z,3.83
2019-03-27T08:51:23.566Z,4.77
2019-03-27T08:53:53.650Z,4.23
2019-03-27T08:56:23.892Z,5.10
2019-03-27T08:58:54.062Z,4.40
2019-03-27T09:01:23.541Z,5.00
2019-03-27T09:03:52.957Z,4.33
2019-03-27T09:06:33.140Z,3.97
2019-03-27T09:08:53.619Z,4.67
2019-03-27T09:11:23.729Z,4.20
2019-03-27T09:13:53.264Z,4.07
2019-03-27T09:16:22.632Z,4.10
2019-03-27T09:18:52.748Z,3.60
2019-03-27T09:21:23.073Z,3.17
2019-03-27T09:23:54.410Z,3.40
2019-03-27T09:26:23.891Z,3.47
2019-03-27T09:28:53.269Z,2.80
2019-03-27T09:31:22.808Z,3.27
2019-03-27T09:33:52.190Z,2.90
2019-03-27T09:36:22.382Z,3.10
2019-03-27T09:38:52.674Z,2.97
2019-03-27T09:41:23.743Z,2.57
2019-03-27T09:43:53.376Z,2.40
2019-03-27T09:46:23.705Z,2.30
2019-03-27T09:48:53.940Z,2.40
2019-03-27T09:51:24.292Z,2.10
2019-03-27T09:53:55.440Z,2.30
2019-03-27T09:56:24.914Z,2.30
2019-03-27T09:58:54.447Z,2.23
2019-03-27T10:01:24.041Z,2.10
2019-03-27T10:03:54.242Z,2.40
2019-03-27T10:06:24.958Z,2.87
2019-03-27T10:08:55.502Z,2.20
2019-03-27T10:11:25.707Z,2.20
2019-03-27T10:13:56.127Z,2.30
2019-03-27T10:16:25.561Z,2.53
2019-03-27T10:18:55.209Z,2.60
2019-03-27T10:21:25.598Z,2.40
2019-03-27T10:23:55.907Z,2.20
2019-03-27T10:26:26.360Z,2.80
2019-03-27T10:28:56.451Z,2.60
2019-03-27T10:31:25.908Z,2.27
2019-03-27T10:33:55.997Z,2.20
2019-03-27T10:36:26.154Z,2.43
2019-03-27T10:38:56.352Z,2.40
2019-03-27T10:41:26.598Z,2.90
2019-03-27T10:43:57.084Z,2.70
2019-03-27T10:46:26.688Z,2.80
2019-03-27T10:48:56.796Z,3.20
2019-03-27T10:51:28.617Z,3.50
2019-03-27T10:53:58.258Z,2.70
2019-03-27T10:56:28.339Z,2.37
2019-03-27T10:58:57.869Z,2.70
2019-03-27T11:01:27.409Z,2.13
2019-03-27T11:03:56.982Z,2.70
2019-03-27T11:06:26.403Z,2.63
2019-03-27T11:08:56.513Z,2.30
2019-03-27T11:11:25.971Z,2.50
2019-03-27T11:13:56.049Z,2.50
2019-03-27T11:16:26.646Z,2.83
2019-03-27T11:18:56.808Z,2.80
2019-03-27T11:21:27.415Z,2.20
2019-03-27T11:23:58.464Z,2.40
2019-03-27T11:26:28.050Z,2.60
2019-03-27T11:28:57.487Z,2.30
2019-03-27T11:31:27.585Z,2.27
2019-03-27T11:33:57.807Z,2.37
2019-03-27T11:36:28.002Z,2.67
2019-03-27T11:38:58.224Z,2.57
2019-03-27T11:41:27.758Z,2.70
2019-03-27T11:43:57.216Z,2.77
2019-03-27T11:46:27.446Z,2.80
2019-03-27T11:48:57.866Z,2.67
2019-03-27T11:51:28.022Z,2.23
2019-03-27T11:53:57.462Z,2.40
2019-03-27T11:56:27.610Z,2.30
2019-03-27T11:58:57.066Z,2.50
2019-03-27T12:01:38.994Z,4.23
2019-03-27T12:03:58.605Z,3.40
2019-03-27T12:06:52.507Z,2.33
2019-03-27T12:09:28.451Z,3.40
2019-03-27T12:11:57.895Z,2.03
2019-03-27T12:14:29.191Z,3.03
2019-03-27T12:16:59.549Z,2.90
2019-03-27T12:19:28.945Z,2.40
2019-03-27T12:22:00.070Z,2.70
2019-03-27T12:24:30.301Z,2.57
2019-03-27T12:26:59.831Z,2.90
2019-03-27T12:29:29.352Z,2.90
2019-03-27T12:31:58.735Z,3.40
2019-03-27T12:34:28.127Z,2.93
2019-03-27T12:36:57.622Z,3.30
2019-03-27T12:39:27.179Z,3.33
2019-03-27T12:41:57.343Z,3.97
2019-03-27T12:44:27.566Z,3.60
2019-03-27T12:46:57.742Z,3.50
2019-03-27T12:49:27.205Z,3.80
2019-03-27T12:51:57.327Z,4.50
2019-03-27T12:54:26.823Z,3.80
2019-03-27T12:56:56.210Z,3.90
2019-03-27T12:59:26.486Z,4.03
2019-03-27T13:01:55.902Z,4.30
2019-03-27T13:04:25.295Z,4.10
2019-03-27T13:06:54.674Z,4.37
2019-03-27T13:09:24.062Z,4.40
2019-03-27T13:11:54.213Z,4.40
2019-03-27T13:14:24.524Z,4.57
2019-03-27T13:16:54.816Z,4.60
2019-03-27T13:19:25.021Z,4.57
2019-03-27T13:21:55.307Z,4.90
2019-03-27T13:24:25.798Z,5.20
2019-03-27T13:26:55.242Z,7.53
2019-03-27T13:29:24.640Z,4.90
2019-03-27T13:31:54.033Z,4.20
2019-03-27T13:34:24.326Z,4.30
2019-03-27T13:36:53.793Z,4.50
2019-03-27T13:39:23.898Z,4.57
2019-03-27T13:41:54.110Z,4.23
2019-03-27T13:44:36.328Z,3.87
2019-03-27T13:46:56.677Z,4.33
2019-03-27T13:49:26.991Z,4.47
2019-03-27T13:51:57.214Z,4.33
2019-03-27T13:54:27.415Z,4.00
2019-03-27T13:56:57.581Z,3.97
2019-03-27T13:59:27.781Z,4.07
2019-03-27T14:01:57.260Z,4.47
2019-03-27T14:04:26.793Z,4.20
2019-03-27T14:06:57.992Z,4.47
2019-03-27T14:09:27.543Z,4.43
2019-03-27T14:11:56.954Z,4.40
2019-03-27T14:14:27.048Z,4.27
2019-03-27T14:17:10.302Z,4.60
2019-03-27T14:19:42.256Z,6.47
2019-03-27T14:22:17.690Z,7.90
2019-03-27T14:24:50.111Z,7.20
2019-03-27T14:27:36.951Z,4.23
2019-03-27T14:30:07.097Z,4.80
2019-03-27T14:32:36.487Z,4.83
2019-03-27T14:35:08.522Z,4.50
2019-03-27T14:37:38.054Z,4.67
2019-03-27T14:40:09.406Z,4.90
2019-03-27T14:42:39.591Z,4.30
2019-03-27T14:45:10.490Z,4.50
2019-03-27T14:47:40.183Z,4.60
2019-03-27T14:50:15.050Z,4.50
2019-03-27T14:52:49.195Z,4.27
2019-03-27T14:55:19.756Z,3.90
2019-03-27T14:57:49.948Z,4.03
2019-03-27T15:00:19.650Z,4.07
2019-03-27T15:02:49.156Z,3.93
2019-03-27T15:05:18.732Z,4.10
2019-03-27T15:07:48.310Z,3.93
2019-03-27T15:10:18.676Z,3.63
2019-03-27T15:12:49.070Z,3.30
2019-03-27T15:15:20.060Z,4.30
2019-03-27T15:17:50.259Z,4.10
2019-03-27T15:20:20.911Z,3.73
2019-03-27T15:22:51.155Z,4.10
2019-03-27T15:25:20.893Z,4.17
2019-03-27T15:27:50.316Z,3.90
2019-03-27T15:30:20.725Z,4.60
2019-03-27T15:32:50.324Z,4.30
2019-03-27T15:35:20.410Z,4.10
2019-03-27T15:37:51.024Z,4.60
2019-03-27T15:40:39.028Z,4.13
2019-03-27T15:43:11.051Z,3.67
2019-03-27T15:45:41.633Z,4.53
2019-03-27T15:48:12.283Z,5.87
2019-03-27T15:50:58.444Z,8.40
2019-03-27T15:53:21.579Z,4.70
2019-03-27T15:55:52.177Z,4.63
2019-03-27T15:58:22.918Z,4.37
2019-03-27T16:00:52.489Z,4.53
2019-03-27T16:03:22.782Z,8.10
2019-03-27T16:05:54.421Z,7.57
2019-03-27T16:08:26.879Z,4.77
2019-03-27T16:10:57.950Z,5.07
2019-03-27T16:17:20.432Z,5.00
2019-03-27T16:19:54.904Z,4.77
2019-03-27T16:22:25.522Z,5.50
2019-03-27T16:25:07.914Z,6.33
2019-03-27T16:27:38.056Z,7.77
2019-03-27T16:30:10.046Z,5.40
2019-03-27T16:32:42.743Z,5.80
2019-03-27T16:35:18.334Z,6.20
2019-03-27T16:38:02.596Z,6.47
2019-03-27T16:40:47.825Z,6.03
2019-03-27T16:43:17.846Z,5.73
2019-03-27T16:45:48.571Z,6.00
2019-03-27T16:48:19.102Z,6.50
2019-03-27T16:50:55.659Z,6.73
2019-03-27T16:53:26.061Z,6.47
2019-03-27T16:55:56.554Z,6.87
2019-03-27T16:58:26.351Z,6.77
2019-03-27T17:00:56.012Z,6.67
2019-03-27T17:03:45.358Z,9.77
2019-03-27T17:06:20.749Z,10.63
2019-03-27T17:08:51.881Z,7.20
2019-03-27T17:11:24.902Z,7.00
2019-03-27T17:13:58.048Z,7.37
2019-03-27T17:16:27.894Z,7.17
2019-03-27T17:18:58.039Z,7.93
2019-03-27T17:21:28.247Z,8.23
2019-03-27T17:23:57.837Z,8.00
2019-03-27T17:26:28.162Z,7.17
2019-03-27T17:28:57.668Z,7.90
2019-03-27T17:31:28.007Z,7.83
2019-03-27T17:33:59.072Z,7.87
2019-03-27T17:36:28.583Z,7.87
2019-03-27T17:38:58.957Z,7.57
2019-03-27T17:41:28.750Z,8.70
2019-03-27T17:43:58.899Z,8.17
2019-03-27T17:46:29.318Z,7.77
2019-03-27T17:48:59.513Z,7.40
2019-03-27T17:51:30.316Z,7.80
2019-03-27T17:53:59.734Z,8.10
2019-03-27T17:56:29.110Z,7.77
2019-03-27T17:58:59.020Z,7.70
2019-03-27T18:01:28.543Z,8.43
2019-03-27T18:03:58.114Z,7.77
2019-03-27T18:06:28.006Z,7.83
2019-03-27T18:08:57.532Z,8.53
2019-03-27T18:11:32.766Z,7.20
2019-03-27T18:14:04.397Z,8.33
2019-03-27T18:16:45.494Z,10.77
2019-03-27T18:19:15.781Z,8.37
2019-03-27T18:34:44.230Z,8.83
2019-03-27T18:37:13.786Z,9.17
2019-03-27T18:43:00.384Z,10.60
2019-03-27T18:45:30.719Z,8.10
2019-03-27T18:48:00.894Z,8.33
2019-03-27T18:50:31.775Z,8.43
2019-03-27T18:53:01.957Z,10.90
2019-03-27T18:55:32.224Z,8.93
2019-03-27T18:58:01.867Z,8.57
2019-03-27T19:00:31.413Z,9.10
2019-03-27T19:03:01.079Z,13.23
2019-03-27T19:05:30.651Z,10.50
2019-03-27T19:08:00.118Z,9.80
2019-03-27T19:10:29.641Z,8.63
2019-03-27T19:12:59.877Z,9.13
2019-03-27T19:15:29.466Z,10.50
2019-03-27T19:18:00.560Z,8.90
2019-03-27T19:20:30.758Z,9.80
2019-03-27T19:23:00.314Z,9.93
2019-03-27T19:25:29.752Z,10.13
2019-03-27T19:27:59.921Z,9.93
2019-03-27T19:30:30.274Z,10.13
2019-03-27T19:33:00.480Z,10.03
2019-03-27T19:35:30.673Z,10.00
2019-03-27T19:38:00.356Z,9.50
2019-03-27T19:40:30.962Z,9.43
2019-03-27T19:43:01.405Z,9.77
2019-03-27T19:45:31.721Z,9.80
2019-03-27T19:48:01.952Z,9.33
2019-03-27T19:50:32.283Z,9.27
2019-03-27T19:53:02.539Z,9.73
2019-03-27T19:55:32.060Z,10.93
2019-03-27T19:58:02.198Z,9.50
2019-03-27T20:00:32.546Z,10.80
2019-03-27T20:03:02.092Z,10.60
2019-03-27T20:05:32.244Z,11.10
2019-03-27T20:08:02.713Z,10.90
2019-03-27T20:10:33.047Z,10.87
2019-03-27T20:13:03.306Z,11.03
2019-03-27T20:15:33.007Z,11.70
2019-03-27T20:18:02.455Z,11.50
2019-03-27T20:20:32.641Z,13.53
2019-03-27T20:23:14.929Z,14.63
2019-03-27T20:25:36.432Z,14.43
2019-03-27T20:28:05.995Z,12.13
2019-03-27T20:30:35.410Z,10.90
2019-03-27T20:33:04.786Z,12.47
2019-03-27T20:35:34.489Z,11.63
2019-03-27T20:38:04.616Z,11.60
2019-03-27T20:40:35.251Z,11.33
2019-03-27T20:43:05.581Z,11.23
2019-03-27T20:45:35.886Z,11.60
2019-03-27T20:48:06.311Z,11.50
2019-03-27T20:50:36.602Z,11.97
2019-03-27T20:53:06.159Z,12.00
2019-03-27T20:55:35.636Z,11.90
2019-03-27T20:58:05.183Z,12.43
2019-03-27T21:00:34.734Z,12.27
2019-03-27T21:03:04.653Z,12.40
2019-03-27T21:05:35.179Z,12.00
2019-03-27T21:08:05.083Z,12.20
2019-03-27T21:10:35.309Z,10.87
2019-03-27T21:13:05.766Z,12.07
2019-03-27T21:15:38.460Z,12.63
2019-03-27T21:18:07.318Z,12.13
2019-03-27T21:20:37.890Z,13.07
2019-03-27T21:23:08.738Z,13.70
2019-03-27T21:25:38.650Z,12.90
2019-03-27T21:28:08.484Z,13.20
2019-03-27T21:30:39.559Z,12.10
2019-03-27T21:33:09.285Z,12.57
2019-03-27T21:35:38.756Z,13.00
2019-03-27T21:38:08.998Z,13.13
2019-03-27T21:40:39.292Z,13.13
2019-03-27T21:43:08.841Z,13.03
2019-03-27T21:45:39.059Z,13.10
2019-03-27T21:48:08.653Z,12.97
2019-03-27T21:50:38.840Z,14.30
2019-03-27T21:53:09.410Z,13.50
2019-03-27T21:55:42.936Z,14.37
2019-03-27T21:58:11.646Z,14.90
2019-03-27T22:00:41.902Z,14.30
2019-03-27T22:03:12.150Z,13.83
2019-03-27T22:05:42.383Z,14.43
2019-03-27T22:08:11.988Z,15.43
2019-03-27T22:10:42.078Z,14.90
2019-03-27T22:13:12.300Z,15.70
2019-03-27T22:15:42.467Z,16.37
2019-03-27T22:18:13.137Z,16.20
2019-03-27T22:20:43.368Z,16.70
2019-03-27T22:23:12.879Z,16.53
2019-03-27T22:25:42.399Z,16.53
2019-03-27T22:28:11.882Z,16.73
2019-03-27T22:30:41.987Z,16.43
2019-03-27T22:33:11.486Z,15.73
2019-03-27T22:35:40.982Z,15.77
2019-03-27T22:38:10.401Z,15.43
2019-03-27T22:40:40.575Z,14.77
2019-03-27T22:43:11.087Z,14.33
2019-03-27T22:45:40.590Z,15.83
2019-03-27T22:48:10.746Z,14.30
2019-03-27T22:50:40.916Z,15.30
2019-03-27T22:53:11.267Z,13.67
2019-03-27T22:55:49.615Z,13.70
2019-03-27T22:58:13.194Z,13.63
2019-03-27T23:00:49.855Z,14.20
2019-03-27T23:03:20.400Z,13.87
2019-03-27T23:05:50.619Z,13.27
2019-03-27T23:08:20.869Z,13.43
2019-03-27T23:10:50.366Z,13.30
2019-03-27T23:13:21.592Z,14.07
2019-03-27T23:15:52.739Z,14.17
2019-03-27T23:18:22.955Z,13.87
2019-03-27T23:20:53.159Z,13.73
2019-03-27T23:23:24.341Z,14.20
2019-03-27T23:26:02.893Z,13.47
2019-03-27T23:28:26.192Z,14.00
2019-03-27T23:30:56.273Z,14.07
2019-03-27T23:33:26.451Z,14.40
2019-03-27T23:35:56.609Z,12.40
2019-03-27T23:38:26.108Z,12.70
2019-03-27T23:40:56.261Z,13.70
2019-03-27T23:43:25.790Z,12.13
2019-03-27T23:45:55.885Z,12.70
2019-03-27T23:48:26.189Z,11.50
2019-03-27T23:50:56.387Z,12.17
2019-03-27T23:53:26.182Z,12.10
2019-03-27T23:55:56.257Z,12.67
2019-03-27T23:58:28.854Z,11.93
